Time;durP1;ratioP1;P1;durP2;ratioP2;P2;SDS_P1;SDS_P2;PMS_P1;PMS_P2;Temp;Humidity;BMP_temperature;BMP_pressure;BME280_temperature;BME280_humidity;BME280_pressure;Samples;Min_cycle;Max_cycle;Signal;HPM_P1;HPM_P2
2024/01/13 00:01:48;;;;;;;3.90;2.00;;;21.70;32.80;;;;;;5071516;28;20219;-60
2024/01/13 00:04:17;;;;;;;4.28;2.20;;;21.70;32.80;;;;;;5071754;28;20313;-61
2024/01/13 00:06:43;;;;;;;5.80;2.08;;;21.70;32.80;;;;;;5071815;28;20317;-61
2024/01/13 00:09:11;;;;;;;4.20;1.90;;;21.70;32.90;;;;;;5071987;28;20195;-61
2024/01/13 00:11:38;;;;;;;4.18;1.92;;;21.70;32.80;;;;;;5071703;28;20656;-61
2024/01/13 00:14:05;;;;;;;3.40;1.50;;;21.70;32.80;;;;;;5071922;28;20191;-61
2024/01/13 00:16:32;;;;;;;4.85;2.17;;;21.70;32.80;;;;;;5071355;28;20214;-60
2024/01/13 00:18:59;;;;;;;4.65;1.73;;;21.80;32.90;;;;;;5073279;28;20187;-61
2024/01/13 00:21:27;;;;;;;7.32;2.30;;;21.70;32.80;;;;;;5075826;28;20187;-61
2024/01/13 00:23:54;;;;;;;4.78;1.67;;;21.70;32.80;;;;;;5075364;28;20191;-59
2024/01/13 00:26:21;;;;;;;4.95;2.05;;;21.80;32.90;;;;;;5075769;28;20190;-61
2024/01/13 00:28:48;;;;;;;4.50;1.90;;;21.80;32.90;;;;;;5075702;28;20329;-61
2024/01/13 00:31:15;;;;;;;4.20;1.88;;;21.80;32.90;;;;;;5075245;28;20237;-61
2024/01/13 00:33:43;;;;;;;6.07;1.80;;;21.80;32.90;;;;;;5075460;28;20731;-61
2024/01/13 00:36:10;;;;;;;4.53;1.88;;;21.80;32.90;;;;;;5075419;28;20274;-62
2024/01/13 00:38:38;;;;;;;4.00;2.30;;;21.80;32.80;;;;;;5074928;28;20560;-60
2024/01/13 00:41:06;;;;;;;6.30;2.00;;;21.80;32.90;;;;;;5075430;28;20274;-61
2024/01/13 00:43:33;;;;;;;5.20;2.20;;;21.80;32.90;;;;;;5075101;28;20677;-61
2024/01/13 00:46:00;;;;;;;3.53;1.70;;;21.80;32.80;;;;;;5075065;28;20191;-61
2024/01/13 00:48:27;;;;;;;5.53;2.00;;;21.80;32.80;;;;;;5074780;28;20673;-61
2024/01/13 00:50:54;;;;;;;5.15;1.80;;;21.80;32.80;;;;;;5075040;28;20672;-62
2024/01/13 00:53:21;;;;;;;3.95;1.80;;;21.70;32.80;;;;;;5074572;28;20193;-61
2024/01/13 00:55:49;;;;;;;5.03;1.98;;;21.70;32.80;;;;;;5074964;28;20199;-61
2024/01/13 00:58:17;;;;;;;4.40;1.90;;;21.70;32.80;;;;;;5075041;28;20207;-60
2024/01/13 01:00:43;;;;;;;4.60;2.10;;;21.70;32.80;;;;;;5074853;28;20636;-61
2024/01/13 01:03:10;;;;;;;5.05;2.08;;;21.70;32.80;;;;;;5074971;28;20195;-60
2024/01/13 01:05:37;;;;;;;4.63;2.15;;;21.70;32.80;;;;;;5075044;28;20215;-61
2024/01/13 01:08:04;;;;;;;6.07;2.30;;;21.70;32.80;;;;;;5074317;28;20680;-60
2024/01/13 01:10:31;;;;;;;4.72;1.60;;;21.70;32.80;;;;;;5074776;28;20203;-62
2024/01/13 01:13:00;;;;;;;4.32;1.95;;;21.70;32.80;;;;;;5074500;28;20790;-61
2024/01/13 01:15:26;;;;;;;6.65;2.08;;;21.70;32.80;;;;;;5074580;28;20191;-61
2024/01/13 01:17:53;;;;;;;4.82;1.65;;;21.70;32.70;;;;;;5074708;28;20246;-61
2024/01/13 01:20:20;;;;;;;3.90;1.73;;;21.70;32.80;;;;;;5074603;28;20213;-60
2024/01/13 01:22:47;;;;;;;5.40;2.00;;;21.70;32.70;;;;;;5074324;28;20194;-61
2024/01/13 01:25:14;;;;;;;4.22;1.90;;;21.70;32.70;;;;;;5074682;28;20275;-60
2024/01/13 01:27:41;;;;;;;5.43;1.88;;;21.70;32.70;;;;;;5074597;28;20183;-62
2024/01/13 01:30:10;;;;;;;4.05;1.92;;;21.70;32.70;;;;;;5073318;28;20563;-58
2024/01/13 01:32:37;;;;;;;5.05;2.15;;;21.70;32.60;;;;;;5074495;28;20197;-61
2024/01/13 01:35:06;;;;;;;7.47;2.03;;;21.70;32.60;;;;;;5074469;28;20194;-57
2024/01/13 01:37:33;;;;;;;5.90;2.40;;;21.70;33.30;;;;;;5073972;28;20304;-61
2024/01/13 01:40:00;;;;;;;4.00;1.70;;;21.70;32.50;;;;;;5074366;28;20193;-60
2024/01/13 01:42:27;;;;;;;5.30;1.85;;;21.70;32.50;;;;;;5074295;28;20270;-61
2024/01/13 01:44:54;;;;;;;4.70;1.77;;;21.70;32.50;;;;;;5073878;28;20190;-61
2024/01/13 01:47:23;;;;;;;4.15;1.63;;;21.70;33.10;;;;;;5074249;28;20232;-61
2024/01/13 01:49:50;;;;;;;3.75;1.92;;;21.70;32.50;;;;;;5073918;28;20187;-60
2024/01/13 01:52:17;;;;;;;4.20;1.70;;;21.70;32.50;;;;;;5073608;28;20310;-61
2024/01/13 01:54:44;;;;;;;3.22;1.55;;;21.70;32.50;;;;;;5074154;28;20285;-60
2024/01/13 01:57:15;;;;;;;3.90;1.92;;;21.70;32.50;;;;;;5073960;28;20210;-61
2024/01/13 01:59:42;;;;;;;3.97;1.90;;;21.70;32.40;;;;;;5073736;28;20201;-60
2024/01/13 02:02:10;;;;;;;3.50;1.67;;;21.70;32.40;;;;;;5073971;28;20266;-61
2024/01/13 02:04:38;;;;;;;3.85;1.80;;;21.70;32.40;;;;;;5073588;28;20233;-60
2024/01/13 02:07:06;;;;;;;3.35;1.58;;;21.70;32.40;;;;;;5073107;28;20737;-60
2024/01/13 02:09:34;;;;;;;3.65;1.80;;;21.70;32.30;;;;;;5073500;28;20559;-60
2024/01/13 02:12:00;;;;;;;7.22;1.90;;;21.70;32.30;;;;;;5073799;28;20273;-61
2024/01/13 02:14:27;;;;;;;5.13;1.80;;;21.70;32.30;;;;;;5073294;28;20227;-61
2024/01/13 02:16:54;;;;;;;3.55;1.63;;;21.70;32.20;;;;;;5073910;28;20281;-59
2024/01/13 02:19:21;;;;;;;5.25;2.28;;;21.70;32.30;;;;;;5073554;28;20274;-61
2024/01/13 02:21:49;;;;;;;3.65;1.48;;;21.70;32.20;;;;;;5071170;28;20667;-60
2024/01/13 02:24:16;;;;;;;4.07;1.67;;;21.70;32.20;;;;;;5063064;28;20195;-61
2024/01/13 02:26:43;;;;;;;3.83;1.58;;;21.70;32.20;;;;;;5053389;28;20436;-61
2024/01/13 02:29:10;;;;;;;5.18;1.77;;;21.70;32.20;;;;;;5053018;28;20286;-61
2024/01/13 02:31:37;;;;;;;2.80;1.50;;;21.70;32.20;;;;;;5053121;28;20561;-61
2024/01/13 02:34:04;;;;;;;4.70;1.83;;;21.70;32.20;;;;;;5053193;28;20184;-61
2024/01/13 02:36:30;;;;;;;4.53;1.70;;;21.60;32.10;;;;;;5052906;28;20198;-61
2024/01/13 02:38:59;;;;;;;3.90;1.75;;;21.60;32.10;;;;;;5053186;28;20222;-61
2024/01/13 02:41:25;;;;;;;5.90;2.25;;;21.70;32.20;;;;;;5052601;28;20625;-59
2024/01/13 02:43:52;;;;;;;4.03;1.80;;;21.70;32.80;;;;;;5052507;28;20283;-60
2024/01/13 02:46:19;;;;;;;3.60;1.65;;;21.60;32.80;;;;;;5053081;28;20274;-61
2024/01/13 02:48:48;;;;;;;3.72;1.52;;;21.60;32.10;;;;;;5052730;28;20231;-61
2024/01/13 02:51:16;;;;;;;3.90;1.70;;;21.60;32.10;;;;;;5052389;28;20645;-61
2024/01/13 02:53:43;;;;;;;4.43;1.60;;;21.60;32.10;;;;;;5052991;28;20268;-61
2024/01/13 02:56:11;;;;;;;6.88;1.75;;;21.60;32.00;;;;;;5053000;28;20190;-61
2024/01/13 02:58:38;;;;;;;4.18;1.95;;;21.60;32.00;;;;;;5052210;28;20227;-61
2024/01/13 03:01:06;;;;;;;4.65;1.67;;;21.60;32.00;;;;;;5052912;28;20294;-61
2024/01/13 03:03:34;;;;;;;3.30;1.60;;;21.60;32.00;;;;;;5052464;28;20655;-60
2024/01/13 03:06:02;;;;;;;3.65;1.60;;;21.60;32.00;;;;;;5052480;28;20202;-62
2024/01/13 03:08:28;;;;;;;2.92;1.67;;;21.60;32.00;;;;;;5052251;28;20235;-61
2024/01/13 03:10:55;;;;;;;2.65;1.58;;;21.60;32.00;;;;;;5052777;28;20290;-61
2024/01/13 03:13:23;;;;;;;4.97;1.75;;;21.60;32.00;;;;;;5052317;28;20222;-60
2024/01/13 03:15:50;;;;;;;5.82;2.47;;;21.60;32.60;;;;;;5052597;28;20279;-61
2024/01/13 03:18:17;;;;;;;3.78;1.63;;;21.60;31.90;;;;;;5052539;28;20215;-61
2024/01/13 03:20:44;;;;;;;3.75;1.70;;;21.60;32.00;;;;;;5052514;28;20290;-60
2024/01/13 03:23:11;;;;;;;3.53;1.65;;;21.60;31.90;;;;;;5052578;28;20190;-61
2024/01/13 03:25:38;;;;;;;4.13;1.77;;;21.60;31.90;;;;;;5052100;28;20558;-61
2024/01/13 03:28:05;;;;;;;2.40;1.50;;;21.60;31.90;;;;;;5052069;28;20198;-60
2024/01/13 03:30:33;;;;;;;4.15;2.13;;;21.60;31.90;;;;;;5052371;28;20271;-61
2024/01/13 03:33:01;;;;;;;5.88;1.80;;;21.60;31.90;;;;;;5052266;28;20213;-61
2024/01/13 03:35:28;;;;;;;4.15;1.83;;;21.60;31.80;;;;;;5052028;28;20188;-61
2024/01/13 03:37:55;;;;;;;3.85;1.83;;;21.60;31.80;;;;;;5052267;28;20215;-61
2024/01/13 03:40:22;;;;;;;5.00;1.58;;;21.60;31.80;;;;;;5051995;28;20187;-61
2024/01/13 03:42:49;;;;;;;3.90;1.83;;;21.60;31.80;;;;;;5051925;28;20191;-61
2024/01/13 03:45:16;;;;;;;4.20;1.90;;;21.60;31.70;;;;;;5051867;28;20732;-60
2024/01/13 03:47:44;;;;;;;4.47;1.92;;;21.60;31.70;;;;;;5052185;28;20274;-60
2024/01/13 03:50:11;;;;;;;5.68;1.98;;;21.60;31.70;;;;;;5051580;28;20707;-61
2024/01/13 03:52:38;;;;;;;4.13;1.88;;;21.60;31.70;;;;;;5052061;28;20602;-61
2024/01/13 03:55:06;;;;;;;5.15;1.85;;;21.60;31.70;;;;;;5055127;28;20631;-59
2024/01/13 03:57:32;;;;;;;3.80;1.70;;;21.60;31.70;;;;;;5055882;28;20219;-57
2024/01/13 03:59:59;;;;;;;5.00;2.05;;;21.60;31.70;;;;;;5055767;28;20683;-59
2024/01/13 04:02:27;;;;;;;4.93;1.75;;;21.60;31.70;;;;;;5056180;28;20190;-60
2024/01/13 04:04:56;;;;;;;5.78;1.95;;;21.60;31.70;;;;;;5056029;28;20184;-61
2024/01/13 04:07:22;;;;;;;4.55;1.90;;;21.60;31.60;;;;;;5055609;28;20229;-61
2024/01/13 04:09:50;;;;;;;4.05;2.15;;;21.60;31.60;;;;;;5056100;28;20191;-61
2024/01/13 04:12:17;;;;;;;4.80;1.80;;;21.60;31.60;;;;;;5055951;28;20621;-58
2024/01/13 04:14:43;;;;;;;6.30;2.10;;;21.60;31.60;;;;;;5055810;28;20222;-60
2024/01/13 04:17:10;;;;;;;3.58;1.90;;;21.60;31.50;;;;;;5055991;28;20188;-61
2024/01/13 04:19:37;;;;;;;3.25;1.90;;;21.60;31.60;;;;;;5055763;28;20219;-60
2024/01/13 04:22:06;;;;;;;3.40;2.10;;;21.60;31.60;;;;;;5055620;28;20270;-61
2024/01/13 04:24:32;;;;;;;6.28;1.95;;;21.60;32.20;;;;;;5055509;28;20278;-61
2024/01/13 04:26:59;;;;;;;4.25;2.00;;;21.60;31.50;;;;;;5055421;28;20210;-61
2024/01/13 04:29:26;;;;;;;6.38;2.03;;;21.60;31.40;;;;;;5055432;28;20191;-60
2024/01/13 04:31:53;;;;;;;8.05;2.20;;;21.60;31.40;;;;;;5055211;28;20544;-61
2024/01/13 04:34:20;;;;;;;4.30;2.03;;;21.60;31.40;;;;;;5049207;28;20191;-60
2024/01/13 04:36:47;;;;;;;4.35;2.03;;;21.60;31.40;;;;;;5037176;28;20266;-61
2024/01/13 04:39:15;;;;;;;3.08;1.70;;;21.60;31.40;;;;;;5055483;28;20584;-60
2024/01/13 04:41:42;;;;;;;5.05;2.40;;;21.50;31.30;;;;;;5049605;28;20287;-61
2024/01/13 04:44:09;;;;;;;7.07;2.53;;;21.60;31.40;;;;;;5035172;28;20199;-61
2024/01/13 04:46:36;;;;;;;3.83;1.90;;;21.60;31.40;;;;;;5035406;28;20188;-60
2024/01/13 04:49:03;;;;;;;3.70;2.05;;;21.50;31.30;;;;;;5035467;28;20220;-61
2024/01/13 04:51:29;;;;;;;5.93;2.22;;;21.50;31.30;;;;;;5034756;28;20685;-61
2024/01/13 04:53:57;;;;;;;5.28;1.88;;;21.50;31.20;;;;;;5035276;28;20197;-61
2024/01/13 04:56:25;;;;;;;6.15;2.45;;;21.50;31.20;;;;;;5035234;28;20192;-60
2024/01/13 04:58:52;;;;;;;4.45;2.17;;;21.50;31.20;;;;;;5034900;28;20226;-61
2024/01/13 05:01:19;;;;;;;4.88;2.08;;;21.50;31.20;;;;;;5035194;28;20189;-61
2024/01/13 05:03:46;;;;;;;4.55;2.42;;;21.50;31.20;;;;;;5034582;28;20189;-61
2024/01/13 05:06:15;;;;;;;4.40;2.08;;;21.50;31.20;;;;;;5034561;28;20208;-60
2024/01/13 05:08:42;;;;;;;6.10;2.35;;;21.50;31.30;;;;;;5035009;28;20234;-60
2024/01/13 05:11:09;;;;;;;4.95;2.10;;;21.50;31.20;;;;;;5035028;28;20193;-60
2024/01/13 05:13:37;;;;;;;3.67;2.20;;;21.50;31.20;;;;;;5034268;28;20661;-61
2024/01/13 05:16:05;;;;;;;3.58;2.00;;;21.50;31.20;;;;;;5034715;28;20564;-60
2024/01/13 05:18:32;;;;;;;6.90;2.38;;;21.50;31.20;;;;;;5034518;28;20223;-60
2024/01/13 05:20:59;;;;;;;4.18;2.22;;;21.50;31.20;;;;;;5034499;28;20196;-61
2024/01/13 05:23:26;;;;;;;6.13;2.72;;;21.50;31.20;;;;;;5034479;28;20733;-60
2024/01/13 05:25:53;;;;;;;4.13;2.20;;;21.50;31.20;;;;;;5034424;28;20199;-61
2024/01/13 05:28:20;;;;;;;4.15;2.35;;;21.50;31.10;;;;;;5034429;28;20295;-61
2024/01/13 05:30:48;;;;;;;5.47;2.80;;;21.50;31.80;;;;;;5034669;28;20200;-61
2024/01/13 05:33:15;;;;;;;6.50;3.03;;;21.50;31.10;;;;;;5034548;28;20277;-61
2024/01/13 05:35:42;;;;;;;4.28;2.25;;;21.50;31.10;;;;;;5034534;28;20280;-60
2024/01/13 05:38:09;;;;;;;6.00;2.53;;;21.50;31.10;;;;;;5034408;28;20215;-61
2024/01/13 05:40:40;;;;;;;5.95;2.20;;;21.50;31.00;;;;;;5034239;28;20750;-59
2024/01/13 05:43:07;;;;;;;4.50;2.45;;;21.50;31.70;;;;;;5033778;28;20638;-61
2024/01/13 05:45:34;;;;;;;5.78;2.67;;;21.50;31.10;;;;;;5034352;28;20199;-61
2024/01/13 05:48:02;;;;;;;8.75;2.53;;;21.50;31.00;;;;;;5034337;28;20191;-61
2024/01/13 05:50:29;;;;;;;6.32;2.20;;;21.50;31.00;;;;;;5033685;28;20697;-61
2024/01/13 05:52:56;;;;;;;3.47;2.40;;;21.50;31.00;;;;;;5034242;28;20271;-61
2024/01/13 05:55:23;;;;;;;3.70;2.58;;;21.50;31.00;;;;;;5034235;28;20184;-61
2024/01/13 05:57:50;;;;;;;5.70;2.80;;;21.50;31.00;;;;;;5034024;28;20283;-60
2024/01/13 06:00:18;;;;;;;6.45;2.85;;;21.50;31.00;;;;;;5034156;28;20193;-61
2024/01/13 06:02:44;;;;;;;5.85;2.80;;;21.50;31.00;;;;;;5034043;28;20284;-61
2024/01/13 06:05:13;;;;;;;7.38;2.55;;;21.50;31.00;;;;;;5033735;28;20291;-61
2024/01/13 06:07:40;;;;;;;7.82;2.92;;;21.50;31.00;;;;;;5033541;28;20243;-61
2024/01/13 06:10:07;;;;;;;4.40;2.55;;;21.50;31.00;;;;;;5033878;28;20201;-61
2024/01/13 06:12:34;;;;;;;5.55;2.70;;;21.50;31.00;;;;;;5033182;28;20203;-61
2024/01/13 06:15:01;;;;;;;4.85;2.60;;;21.50;30.90;;;;;;5033838;28;20195;-61
2024/01/13 06:17:28;;;;;;;3.40;2.70;;;21.50;30.90;;;;;;5033604;28;20280;-61
2024/01/13 06:19:54;;;;;;;6.30;2.70;;;21.50;30.90;;;;;;5033292;28;20313;-61
2024/01/13 06:22:23;;;;;;;5.05;3.00;;;21.50;30.90;;;;;;5033363;28;20189;-61
2024/01/13 06:24:50;;;;;;;5.85;3.17;;;21.50;30.90;;;;;;5033577;28;20200;-61
2024/01/13 06:27:17;;;;;;;4.78;3.10;;;21.50;30.90;;;;;;5033351;28;20668;-61
2024/01/13 06:29:43;;;;;;;4.70;2.67;;;21.50;30.90;;;;;;5033787;28;20192;-61
2024/01/13 06:32:10;;;;;;;7.38;3.00;;;21.50;30.90;;;;;;5033135;28;20965;-61
2024/01/13 06:34:37;;;;;;;7.68;3.22;;;21.50;30.80;;;;;;5033096;28;20276;-60
2024/01/13 06:37:04;;;;;;;5.00;2.97;;;21.50;30.80;;;;;;5033247;28;20196;-61
2024/01/13 06:39:33;;;;;;;5.38;3.42;;;21.60;30.90;;;;;;5033253;28;20227;-60
2024/01/13 06:42:02;;;;;;;5.63;3.03;;;21.50;30.80;;;;;;5032858;28;20271;-61
2024/01/13 06:44:29;;;;;;;5.30;2.75;;;21.50;30.70;;;;;;5033241;28;20188;-60
2024/01/13 06:46:56;;;;;;;5.80;3.08;;;21.60;30.80;;;;;;5033153;28;20645;-61
2024/01/13 06:49:23;;;;;;;6.35;3.20;;;21.50;30.70;;;;;;5032892;28;20189;-60
2024/01/13 06:51:49;;;;;;;5.80;3.10;;;21.50;31.40;;;;;;5032936;28;20630;-61
2024/01/13 06:54:16;;;;;;;4.30;2.72;;;21.50;30.70;;;;;;5032711;28;20195;-60
2024/01/13 06:56:44;;;;;;;4.57;3.10;;;21.50;30.70;;;;;;5032729;28;20192;-61
2024/01/13 06:59:12;;;;;;;5.32;3.13;;;21.50;30.60;;;;;;5032921;28;20223;-60
2024/01/13 07:01:39;;;;;;;3.47;2.90;;;21.60;30.80;;;;;;5032591;28;20191;-61
2024/01/13 07:04:06;;;;;;;3.95;2.85;;;21.50;30.60;;;;;;5032337;28;20673;-61
2024/01/13 07:06:32;;;;;;;5.22;2.97;;;21.50;30.60;;;;;;5032491;28;20246;-60
2024/01/13 07:08:59;;;;;;;3.90;3.20;;;21.60;30.70;;;;;;5032835;28;20279;-61
2024/01/13 07:11:27;;;;;;;5.65;3.33;;;21.60;30.70;;;;;;5032526;28;20295;-60
2024/01/13 07:13:55;;;;;;;4.97;2.97;;;21.60;30.70;;;;;;5032272;28;20275;-61
2024/01/13 07:16:22;;;;;;;4.70;3.08;;;21.50;30.60;;;;;;5032862;28;20267;-61
2024/01/13 07:18:49;;;;;;;4.82;3.08;;;21.50;30.60;;;;;;5032265;28;20240;-61
2024/01/13 07:21:15;;;;;;;5.15;3.05;;;21.50;30.60;;;;;;5032398;28;20199;-61
2024/01/13 07:23:43;;;;;;;4.50;2.97;;;21.50;30.60;;;;;;5032503;28;20191;-61
2024/01/13 07:26:10;;;;;;;5.35;3.25;;;21.50;30.60;;;;;;5031972;28;20190;-61
2024/01/13 07:28:37;;;;;;;6.18;3.30;;;21.60;30.60;;;;;;5031733;28;20200;-61
2024/01/13 07:31:06;;;;;;;5.75;3.55;;;21.50;30.50;;;;;;5032182;28;20714;-61
2024/01/13 07:33:33;;;;;;;5.45;3.22;;;21.50;30.60;;;;;;5031793;28;20642;-61
2024/01/13 07:36:00;;;;;;;4.18;2.90;;;21.50;30.50;;;;;;5032418;28;20635;-61
2024/01/13 07:38:27;;;;;;;4.55;3.03;;;21.60;30.60;;;;;;5032428;28;20308;-61
2024/01/13 07:40:54;;;;;;;4.97;3.17;;;21.50;30.50;;;;;;5032123;28;20283;-60
2024/01/13 07:43:20;;;;;;;4.40;2.83;;;21.50;30.50;;;;;;5032381;28;20271;-60
2024/01/13 07:45:47;;;;;;;6.05;3.50;;;21.50;30.50;;;;;;5032156;28;20291;-60
2024/01/13 07:48:16;;;;;;;5.07;3.22;;;21.50;30.50;;;;;;5031723;28;20199;-61
2024/01/13 07:50:42;;;;;;;4.53;3.40;;;21.50;30.50;;;;;;5032112;28;20473;-61
2024/01/13 07:53:09;;;;;;;5.00;3.30;;;21.50;30.50;;;;;;5032592;28;20275;-60
2024/01/13 07:55:36;;;;;;;5.38;3.53;;;21.50;30.50;;;;;;5031930;28;20188;-61
2024/01/13 07:58:03;;;;;;;5.40;3.20;;;21.50;30.50;;;;;;5031996;28;20665;-60
2024/01/13 08:00:30;;;;;;;7.03;3.50;;;21.50;30.50;;;;;;5032037;28;20277;-61
2024/01/13 08:02:57;;;;;;;6.75;3.10;;;21.50;30.50;;;;;;5031576;28;20569;-60
2024/01/13 08:05:25;;;;;;;7.22;3.10;;;21.50;30.50;;;;;;5031987;28;20567;-61
2024/01/13 08:07:52;;;;;;;4.40;3.08;;;21.50;30.70;;;;;;5031797;28;20315;-61
2024/01/13 08:10:19;;;;;;;5.22;3.60;;;21.50;30.40;;;;;;5031962;28;20204;-60
2024/01/13 08:12:46;;;;;;;5.95;3.20;;;21.50;30.40;;;;;;5032053;28;20283;-61
2024/01/13 08:15:13;;;;;;;4.20;3.05;;;21.50;30.40;;;;;;5032158;28;20630;-61
2024/01/13 08:17:40;;;;;;;5.25;3.20;;;21.50;30.40;;;;;;5031269;28;20197;-61
2024/01/13 08:20:09;;;;;;;5.53;3.30;;;21.50;30.40;;;;;;5031991;28;20220;-61
2024/01/13 08:22:37;;;;;;;5.55;3.45;;;21.50;30.40;;;;;;5031734;28;20184;-61
2024/01/13 08:25:06;;;;;;;6.18;3.60;;;21.50;30.40;;;;;;5031666;28;20196;-61
2024/01/13 08:27:34;;;;;;;6.57;3.28;;;21.50;30.40;;;;;;5032358;28;20192;-61
2024/01/13 08:30:00;;;;;;;4.60;3.30;;;21.50;30.40;;;;;;5031702;28;20191;-61
2024/01/13 08:32:27;;;;;;;5.60;3.45;;;21.50;30.30;;;;;;5031684;28;20284;-61
2024/01/13 08:34:55;;;;;;;5.20;3.22;;;21.50;30.40;;;;;;5031895;28;20197;-61
2024/01/13 08:37:21;;;;;;;6.75;3.63;;;21.50;31.00;;;;;;5031869;28;20189;-60
2024/01/13 08:39:50;;;;;;;3.92;3.17;;;21.50;30.30;;;;;;5032383;28;20224;-61
2024/01/13 08:42:16;;;;;;;4.80;3.20;;;21.50;30.30;;;;;;5035547;28;20199;-61
2024/01/13 08:44:43;;;;;;;4.78;3.15;;;21.50;30.30;;;;;;5035502;28;20189;-61
2024/01/13 08:47:10;;;;;;;5.13;3.13;;;21.50;30.30;;;;;;5035323;28;20184;-61
2024/01/13 08:49:39;;;;;;;6.65;3.47;;;21.50;30.30;;;;;;5035262;28;20195;-61
2024/01/13 08:52:08;;;;;;;6.32;3.65;;;21.50;30.30;;;;;;5035072;28;20588;-61
2024/01/13 08:54:36;;;;;;;5.68;3.42;;;21.50;30.30;;;;;;5035132;28;20193;-61
2024/01/13 08:57:04;;;;;;;5.70;3.20;;;21.50;30.30;;;;;;5035299;28;20223;-61
2024/01/13 08:59:33;;;;;;;5.75;3.50;;;21.50;30.90;;;;;;5035253;28;20280;-61
2024/01/13 09:02:00;;;;;;;5.65;3.35;;;21.50;30.20;;;;;;5034788;28;20246;-61
2024/01/13 09:04:26;;;;;;;6.82;3.40;;;21.50;30.20;;;;;;5034947;28;20283;-61
2024/01/13 09:06:53;;;;;;;4.78;3.30;;;21.50;30.20;;;;;;5034866;28;20228;-62
2024/01/13 09:09:20;;;;;;;4.75;3.15;;;21.50;30.20;;;;;;5034948;28;20192;-60
2024/01/13 09:11:48;;;;;;;5.35;3.13;;;21.50;30.20;;;;;;5034660;28;20189;-61
2024/01/13 09:14:16;;;;;;;7.80;3.40;;;21.50;30.20;;;;;;5034640;28;20193;-59
2024/01/13 09:16:44;;;;;;;6.22;3.10;;;21.50;30.20;;;;;;5034657;28;20251;-61
2024/01/13 09:19:11;;;;;;;6.72;3.55;;;21.50;30.20;;;;;;5034536;28;20245;-61
2024/01/13 09:21:38;;;;;;;6.10;3.53;;;21.50;30.20;;;;;;5034723;28;20279;-61
2024/01/13 09:24:06;;;;;;;4.25;3.25;;;21.50;30.20;;;;;;5034437;28;20188;-59
2024/01/13 09:26:33;;;;;;;3.38;2.72;;;21.50;30.10;;;;;;5035067;28;20189;-61
2024/01/13 09:29:00;;;;;;;6.18;3.47;;;21.50;30.20;;;;;;5034728;28;20192;-60
2024/01/13 09:31:28;;;;;;;7.80;2.92;;;21.50;30.10;;;;;;5034074;28;20667;-61
2024/01/13 09:33:55;;;;;;;6.30;3.40;;;21.50;30.20;;;;;;5034671;28;20269;-59
2024/01/13 09:36:22;;;;;;;4.80;3.22;;;21.50;30.10;;;;;;5034558;28;20196;-61
2024/01/13 09:38:49;;;;;;;4.13;3.28;;;21.50;30.20;;;;;;5033938;28;20554;-60
2024/01/13 09:41:16;;;;;;;4.78;3.33;;;21.50;30.10;;;;;;5034138;28;20311;-61
2024/01/13 09:43:52;;;;;;;4.25;2.92;;;21.50;30.10;;;;;;5034150;28;20224;-60
2024/01/13 09:46:19;;;;;;;5.88;3.22;;;21.50;30.10;;;;;;5034312;28;20258;-60
2024/01/13 09:48:49;;;;;;;5.85;3.50;;;21.50;30.10;;;;;;5034320;28;20192;-61
2024/01/13 09:51:17;;;;;;;4.65;3.60;;;21.50;30.10;;;;;;5033156;28;20196;-61
2024/01/13 09:53:49;;;;;;;6.22;3.47;;;21.50;30.10;;;;;;5033732;28;20189;-60
2024/01/13 09:56:23;;;;;;;4.97;3.63;;;21.50;30.10;;;;;;5034212;28;20188;-61
2024/01/13 09:58:50;;;;;;;5.28;3.60;;;21.50;30.10;;;;;;5034014;28;20188;-60
2024/01/13 10:01:17;;;;;;;5.88;3.47;;;21.50;30.10;;;;;;5033382;28;20781;-61
2024/01/13 10:03:47;;;;;;;4.13;3.13;;;21.50;30.10;;;;;;5034030;28;20274;-60
2024/01/13 10:06:14;;;;;;;4.80;3.50;;;21.50;30.10;;;;;;5033538;28;20642;-60
2024/01/13 10:08:41;;;;;;;5.85;3.50;;;21.50;30.10;;;;;;5033620;28;20200;-59
2024/01/13 10:11:08;;;;;;;5.40;3.58;;;21.50;30.10;;;;;;5033526;28;20662;-61
2024/01/13 10:13:35;;;;;;;6.13;3.40;;;21.50;30.10;;;;;;5033878;28;20199;-60
2024/01/13 10:16:02;;;;;;;5.05;3.55;;;21.50;30.10;;;;;;5033383;28;20275;-60
2024/01/13 10:18:32;;;;;;;5.47;3.13;;;21.50;30.10;;;;;;5033771;28;20222;-61
2024/01/13 10:21:04;;;;;;;5.72;3.58;;;21.50;30.10;;;;;;5033608;28;20303;-61
2024/01/13 10:23:31;;;;;;;5.97;3.55;;;21.50;30.10;;;;;;5033658;28;20279;-60
2024/01/13 10:25:58;;;;;;;3.97;3.30;;;21.50;30.10;;;;;;5033272;28;20279;-61
2024/01/13 10:28:25;;;;;;;5.80;3.50;;;21.50;30.70;;;;;;5033279;28;20192;-61
2024/01/13 10:30:52;;;;;;;5.68;3.42;;;21.50;30.10;;;;;;5033225;28;20263;-61
2024/01/13 10:33:19;;;;;;;4.97;3.53;;;21.50;30.70;;;;;;5033303;28;20283;-60
2024/01/13 10:35:48;;;;;;;5.30;3.40;;;21.50;30.10;;;;;;5033465;28;20286;-61
2024/01/13 10:38:17;;;;;;;6.10;3.60;;;21.50;30.00;;;;;;5033045;28;20260;-61
2024/01/13 10:40:44;;;;;;;5.10;3.30;;;21.50;30.10;;;;;;5033029;28;20216;-61
2024/01/13 10:43:14;;;;;;;5.47;3.53;;;21.50;30.10;;;;;;5032922;28;20188;-61
2024/01/13 10:45:42;;;;;;;5.28;3.50;;;21.50;30.10;;;;;;5032952;28;20203;-61
2024/01/13 10:48:18;;;;;;;5.32;3.60;;;21.60;30.10;;;;;;5033248;28;20196;-59
2024/01/13 10:50:50;;;;;;;6.22;3.47;;;21.50;30.00;;;;;;5033187;28;20192;-60
2024/01/13 10:53:25;;;;;;;4.97;3.63;;;21.50;30.00;;;;;;5032840;28;20191;-61
2024/01/13 10:55:54;;;;;;;5.03;3.60;;;21.50;30.00;;;;;;5033157;28;20271;-60
2024/01/13 10:58:21;;;;;;;5.15;3.38;;;21.50;30.00;;;;;;5032590;28;20199;-60
2024/01/13 11:00:48;;;;;;;4.53;3.28;;;21.50;30.00;;;;;;5032748;28;20319;-61
2024/01/13 11:03:16;;;;;;;5.65;3.33;;;21.50;30.00;;;;;;5032504;28;20189;-59
2024/01/13 11:05:43;;;;;;;5.68;3.22;;;21.50;30.00;;;;;;5032983;28;20196;-61
2024/01/13 11:08:11;;;;;;;5.55;3.65;;;21.50;30.00;;;;;;5032156;28;20263;-61
2024/01/13 11:10:43;;;;;;;6.43;3.65;;;21.50;30.00;;;;;;5032709;28;20688;-61
2024/01/13 11:13:15;;;;;;;5.72;3.67;;;21.50;30.00;;;;;;5032407;28;20197;-61
2024/01/13 11:15:49;;;;;;;4.68;3.17;;;21.50;30.00;;;;;;5032185;28;20646;-61
2024/01/13 11:18:19;;;;;;;7.43;3.58;;;21.50;30.00;;;;;;5032636;28;20232;-61
2024/01/13 11:21:03;;;;;;;4.95;3.28;;;21.50;30.00;;;;;;5032415;28;20724;-61
2024/01/13 11:23:35;;;;;;;6.65;3.80;;;21.50;30.00;;;;;;5032020;28;20757;-61
2024/01/13 11:26:04;;;;;;;5.00;3.78;;;21.50;30.00;;;;;;5032628;28;20629;-61
2024/01/13 11:28:48;;;;;;;6.10;4.00;;;21.50;30.00;;;;;;5032699;28;20239;-60
2024/01/13 11:31:34;;;;;;;5.32;3.90;;;21.50;30.00;;;;;;5032274;28;20196;-61
2024/01/13 11:34:02;;;;;;;7.10;3.90;;;21.50;30.00;;;;;;5032137;28;20279;-61
2024/01/13 11:36:30;;;;;;;6.32;3.40;;;21.50;30.00;;;;;;5032173;28;20268;-61
2024/01/13 11:38:58;;;;;;;5.75;3.40;;;21.50;30.00;;;;;;5032422;28;20189;-61
2024/01/13 11:41:39;;;;;;;4.85;3.47;;;21.50;30.00;;;;;;5032280;28;20227;-61
2024/01/13 11:44:07;;;;;;;4.55;3.45;;;21.50;30.00;;;;;;5032046;28;20204;-61
2024/01/13 11:46:35;;;;;;;5.25;3.30;;;21.50;30.00;;;;;;5032380;28;20630;-61
2024/01/13 11:49:03;;;;;;;6.22;3.65;;;21.50;30.00;;;;;;5032007;28;20196;-61
2024/01/13 11:51:57;;;;;;;5.22;3.90;;;21.50;30.00;;;;;;5032056;28;20215;-62
2024/01/13 11:54:24;;;;;;;7.07;3.83;;;21.50;30.00;;;;;;5032275;28;20291;-62
2024/01/13 11:56:52;;;;;;;5.72;3.50;;;21.50;30.00;;;;;;5031891;28;20576;-61
2024/01/13 11:59:20;;;;;;;5.90;3.65;;;21.50;30.00;;;;;;5031948;28;20192;-61
2024/01/13 12:01:47;;;;;;;5.38;3.50;;;21.50;30.00;;;;;;5031561;28;20227;-61
2024/01/13 12:04:16;;;;;;;4.55;3.53;;;21.50;30.00;;;;;;5032100;28;20195;-61
2024/01/13 12:06:43;;;;;;;5.75;3.97;;;21.50;30.00;;;;;;5031622;28;20233;-61
2024/01/13 12:09:12;;;;;;;6.70;4.03;;;21.50;30.00;;;;;;5032106;28;20200;-60
2024/01/13 12:11:39;;;;;;;8.13;4.32;;;21.50;30.00;;;;;;5032265;28;20196;-60
2024/01/13 12:14:07;;;;;;;4.22;3.70;;;21.50;30.00;;;;;;5031458;28;20742;-60
2024/01/13 12:16:36;;;;;;;4.70;3.50;;;21.50;30.00;;;;;;5035724;28;20185;-60
2024/01/13 12:19:03;;;;;;;6.30;3.95;;;21.50;30.00;;;;;;5035943;28;20193;-59
2024/01/13 12:21:30;;;;;;;5.32;3.83;;;21.50;30.00;;;;;;5035621;28;20369;-62
2024/01/13 12:24:00;;;;;;;6.45;3.70;;;21.50;30.60;;;;;;5035873;28;20184;-61
2024/01/13 12:26:31;;;;;;;5.97;4.03;;;21.50;30.00;;;;;;5035854;28;20192;-61
2024/01/13 12:28:59;;;;;;;4.80;3.80;;;21.50;30.00;;;;;;5035570;28;20189;-60
2024/01/13 12:31:27;;;;;;;5.93;3.55;;;21.50;30.00;;;;;;5035573;28;20673;-61
2024/01/13 12:33:54;;;;;;;4.35;3.78;;;21.60;30.00;;;;;;5035536;28;20228;-61
2024/01/13 12:36:21;;;;;;;5.13;3.85;;;21.50;30.00;;;;;;5035468;28;20189;-60
2024/01/13 12:38:48;;;;;;;5.53;3.25;;;21.50;30.00;;;;;;5047823;28;20191;-61
2024/01/13 12:41:16;;;;;;;5.38;4.03;;;21.50;30.00;;;;;;5050953;28;20310;-60
2024/01/13 12:43:43;;;;;;;6.40;4.15;;;21.50;30.00;;;;;;5048499;28;20273;-60
2024/01/13 12:46:11;;;;;;;8.68;4.20;;;21.60;30.10;;;;;;5047165;28;20192;-55
2024/01/13 12:48:39;;;;;;;7.15;4.28;;;21.60;30.20;;;;;;5052472;28;20225;-59
2024/01/13 12:51:10;;;;;;;10.32;4.82;;;21.70;30.60;;;;;;5050560;28;20207;-61